Terminal Aerodrome Forecast
Issued by NWS

Home | Current Version | Previous Version | Text Only | Print | Product List | Glossary On
Versions: 1 2 3 4 5 6 7 8 9 10 11 12 13 14 15 16 17 18 19 20
000
FTUS44 KTSA 210800 AAA
TAFXNA
TAF AMD
KXNA 210823Z 2108/2206 21003KT P6SM SCT090
      TEMPO 2108/2112 4SM BR
     FM211300 25005KT P6SM VCTS SCT025CB BKN050
     FM211600 36008KT P6SM SCT250
     FM220100 36003KT P6SM SKC=

USA.gov is the U.S. government's official web portal to all federal, state and local government web resources and services.